Bickley, Georgia
Current Conditions -  °F | °C
As of 2:53 PM on Monday 26 Jan 2015 (Local Time) from KAMG Reporting Station
Overcast Overcast  
Wind Chill: 51°   Ceiling: 3200
Heat Index: 51°   Visibility: 10mi
Dew Point: 38°   Wind: 18mph
Humidity: 61%   Direction: 280°W
Pressure: 29.81"   Gusts: 25mph
Location:  31.4253°N, 82.5972°W
Report Text: KAMG 261953Z AUTO 28016G22KT 10SM BKN032 OVC042 11/03 A2981 RMK AO2 SLP094 T01060033
Loading
Personal Weather Stations






























Interactive Weather Map New forecast layout! Learn more

10-Day Weather Forecast

Advertisements
Track Severe Weather on mobile